TAF KSMN
KSMN 280520Z 2806/2906 20003KT P6SM OVC100=
METAR KSMN
WC KSMN
WS KSMN
WV KSMN